Terminal Aerodrome Forecast
Issued by NWS Missoula, MT

Home | Current Version | Previous Version | Text Only | Print | Product List | Glossary On
Versions: 1 2 3 4 5 6 7 8 9 10 11 12 13
936
FTUS45 KMSO 250538
TAFBTM
TAF
KBTM 250538Z 2506/2606 13006KT P6SM SKC
     FM251100 VRB03KT P6SM VCFG FEW120
     FM251300 31006KT P6SM SCT030
     FM251900 30012KT P6SM SKC=

USA.gov is the U.S. government's official web portal to all federal, state and local government web resources and services.